createdAt,value
2019-02-11T00:02:18.909Z,1.40
2019-02-11T00:04:50.703Z,1.30
2019-02-11T00:07:20.281Z,1.30
2019-02-11T00:09:50.144Z,1.17
2019-02-11T00:12:19.704Z,1.20
2019-02-11T00:14:49.380Z,1.07
2019-02-11T00:17:18.967Z,1.07
2019-02-11T00:19:48.553Z,1.20
2019-02-11T00:22:18.135Z,0.97
2019-02-11T00:24:47.737Z,1.10
2019-02-11T00:27:17.279Z,1.10
2019-02-11T00:29:46.860Z,1.10
2019-02-11T00:32:16.499Z,1.10
2019-02-11T00:34:46.062Z,0.80
2019-02-11T00:37:15.628Z,1.10
2019-02-11T00:39:45.233Z,1.10
2019-02-11T00:42:14.825Z,1.10
2019-02-11T00:44:44.407Z,1.07
2019-02-11T00:47:14.013Z,1.00
2019-02-11T00:49:43.573Z,1.10
2019-02-11T00:52:13.156Z,1.20
2019-02-11T00:54:42.779Z,1.03
2019-02-11T00:57:12.370Z,1.30
2019-02-11T00:59:41.950Z,1.13
2019-02-11T01:02:11.558Z,1.10
2019-02-11T01:04:42.385Z,1.30
2019-02-11T01:07:11.947Z,1.30
2019-02-11T01:09:41.558Z,1.30
2019-02-11T01:12:11.126Z,1.37
2019-02-11T01:14:40.704Z,1.30
2019-02-11T01:17:10.308Z,1.27
2019-02-11T01:19:39.868Z,1.40
2019-02-11T01:22:10.943Z,1.40
2019-02-11T01:24:49.375Z,1.40
2019-02-11T01:27:38.203Z,1.30
2019-02-11T01:30:11.640Z,1.20
2019-02-11T01:32:41.236Z,1.53
2019-02-11T01:35:11.101Z,1.50
2019-02-11T01:38:00.021Z,1.60
2019-02-11T01:40:29.616Z,1.50
2019-02-11T01:42:59.160Z,1.77
2019-02-11T01:45:28.759Z,2.00
2019-02-11T01:47:58.343Z,2.10
2019-02-11T01:50:27.925Z,1.70
2019-02-11T01:52:57.514Z,2.10
2019-02-11T01:55:27.096Z,2.20
2019-02-11T01:57:56.523Z,2.13
2019-02-11T02:00:28.250Z,2.10
2019-02-11T02:03:17.104Z,2.07
2019-02-11T02:05:46.688Z,2.67
2019-02-11T02:08:16.264Z,2.30
2019-02-11T02:10:45.830Z,2.30
2019-02-11T02:13:15.425Z,2.03
2019-02-11T02:15:44.880Z,2.37
2019-02-11T02:18:14.446Z,2.00
2019-02-11T02:20:44.238Z,2.60
2019-02-11T02:23:13.801Z,2.37
2019-02-11T02:25:43.365Z,2.03
2019-02-11T02:28:13.003Z,2.30
2019-02-11T02:30:42.551Z,2.10
2019-02-11T02:33:12.130Z,1.97
2019-02-11T02:35:41.768Z,2.10
2019-02-11T02:38:11.325Z,2.10
2019-02-11T02:40:40.921Z,2.00
2019-02-11T02:43:10.544Z,2.30
2019-02-11T02:45:40.112Z,2.00
2019-02-11T02:48:09.702Z,2.23
2019-02-11T02:50:39.293Z,2.07
2019-02-11T02:53:08.872Z,2.33
2019-02-11T02:55:38.442Z,1.97
2019-02-11T02:58:08.075Z,2.00
2019-02-11T03:00:37.805Z,2.00
2019-02-11T03:03:07.406Z,2.10
2019-02-11T03:05:38.170Z,1.93
2019-02-11T03:08:08.912Z,1.90
2019-02-11T03:10:38.376Z,1.90
2019-02-11T03:13:09.922Z,1.90
2019-02-11T03:15:39.270Z,2.07
2019-02-11T03:18:08.864Z,2.20
2019-02-11T03:20:38.465Z,2.27
2019-02-11T03:23:08.069Z,2.07
2019-02-11T03:25:37.632Z,2.07
2019-02-11T03:28:07.205Z,2.43
2019-02-11T03:30:37.396Z,2.10
2019-02-11T03:33:06.959Z,1.90
2019-02-11T03:35:36.723Z,2.00
2019-02-11T03:38:07.768Z,2.07
2019-02-11T03:40:37.977Z,2.30
2019-02-11T03:43:07.625Z,2.20
2019-02-11T03:45:37.235Z,2.40
2019-02-11T03:48:12.856Z,1.93
2019-02-11T03:50:42.454Z,2.17
2019-02-11T03:53:12.115Z,1.90
2019-02-11T03:55:42.321Z,1.90
2019-02-11T03:58:13.421Z,2.20
2019-02-11T04:00:42.991Z,2.40
2019-02-11T04:03:14.081Z,1.80
2019-02-11T04:05:43.771Z,1.90
2019-02-11T04:08:14.312Z,2.27
2019-02-11T04:10:43.915Z,2.30
2019-02-11T04:13:13.528Z,2.20
2019-02-11T04:15:43.453Z,2.50
2019-02-11T04:18:13.118Z,2.83
2019-02-11T04:20:42.755Z,2.30
2019-02-11T04:23:12.337Z,2.20
2019-02-11T04:25:41.916Z,2.17
2019-02-11T04:28:11.509Z,2.20
2019-02-11T04:30:42.564Z,2.10
2019-02-11T04:33:31.452Z,2.10
2019-02-11T04:36:01.032Z,2.50
2019-02-11T04:38:30.624Z,2.23
2019-02-11T04:41:00.066Z,2.10
2019-02-11T04:43:29.652Z,2.20
2019-02-11T04:45:59.235Z,2.00
2019-02-11T04:48:28.826Z,2.13
2019-02-11T04:50:58.380Z,2.07
2019-02-11T04:53:27.968Z,2.00
2019-02-11T04:55:57.978Z,1.80
2019-02-11T04:58:27.564Z,1.90
2019-02-11T05:00:57.149Z,2.10
2019-02-11T05:03:26.764Z,2.23
2019-02-11T05:05:56.347Z,2.00
2019-02-11T05:08:25.942Z,1.97
2019-02-11T05:10:55.541Z,2.00
2019-02-11T05:13:25.104Z,2.30
2019-02-11T05:15:54.692Z,1.87
2019-02-11T05:18:24.324Z,1.70
2019-02-11T05:20:53.881Z,1.90
2019-02-11T05:23:23.457Z,2.00
2019-02-11T05:25:53.374Z,2.07
2019-02-11T05:28:22.942Z,2.17
2019-02-11T05:30:52.516Z,2.00
2019-02-11T05:33:22.102Z,2.03
2019-02-11T05:35:51.674Z,2.13
2019-02-11T05:38:21.233Z,2.00
2019-02-11T05:40:50.848Z,2.20
2019-02-11T05:43:20.433Z,2.00
2019-02-11T05:45:50.004Z,2.50
2019-02-11T05:48:19.595Z,1.90
2019-02-11T05:50:49.319Z,1.97
2019-02-11T05:53:18.914Z,2.30
2019-02-11T05:55:48.761Z,2.00
2019-02-11T05:58:18.333Z,2.10
2019-02-11T06:00:47.919Z,2.30
2019-02-11T06:03:17.541Z,2.27
2019-02-11T06:05:47.145Z,2.00
2019-02-11T06:08:16.764Z,2.10
2019-02-11T06:10:46.365Z,2.20
2019-02-11T06:13:15.956Z,1.93
2019-02-11T06:15:45.537Z,2.10
2019-02-11T06:18:15.176Z,2.10
2019-02-11T06:20:44.753Z,2.10
2019-02-11T06:23:14.192Z,2.13
2019-02-11T06:25:43.799Z,2.23
2019-02-11T06:28:13.392Z,1.70
2019-02-11T06:30:42.953Z,2.03
2019-02-11T06:33:18.384Z,2.20
2019-02-11T06:35:47.965Z,2.90
2019-02-11T06:38:17.527Z,2.10
2019-02-11T06:40:47.117Z,1.90
2019-02-11T06:43:16.805Z,1.80
2019-02-11T06:45:46.364Z,2.07
2019-02-11T06:48:15.975Z,2.03
2019-02-11T06:50:45.570Z,2.00
2019-02-11T06:53:15.240Z,2.20
2019-02-11T06:55:45.177Z,2.13
2019-02-11T06:58:14.902Z,1.93
2019-02-11T07:00:44.497Z,2.10
2019-02-11T07:03:14.099Z,2.20
2019-02-11T07:05:43.688Z,2.00
2019-02-11T07:08:13.275Z,2.30
2019-02-11T07:10:43.128Z,2.30
2019-02-11T07:13:12.710Z,2.10
2019-02-11T07:15:42.311Z,2.20
2019-02-11T07:18:11.915Z,2.00
2019-02-11T07:20:41.476Z,2.10
2019-02-11T07:23:11.065Z,2.30
2019-02-11T07:25:40.670Z,2.17
2019-02-11T07:28:10.541Z,1.93
2019-02-11T07:30:40.148Z,1.83
2019-02-11T07:33:09.909Z,1.97
2019-02-11T07:35:39.477Z,1.90
2019-02-11T07:38:09.104Z,2.00
2019-02-11T07:40:38.929Z,2.00
2019-02-11T07:43:16.007Z,2.57
2019-02-11T07:45:47.212Z,1.80
2019-02-11T07:48:16.802Z,1.83
2019-02-11T07:50:46.352Z,1.73
2019-02-11T07:53:15.951Z,2.10
2019-02-11T07:55:45.541Z,1.63
2019-02-11T07:58:16.615Z,1.60
2019-02-11T08:00:46.209Z,1.40
2019-02-11T08:03:17.355Z,1.60
2019-02-11T08:05:46.943Z,2.00
2019-02-11T08:08:16.587Z,1.83
2019-02-11T08:10:46.160Z,1.70
2019-02-11T08:13:15.912Z,1.80
2019-02-11T08:15:45.517Z,1.70
2019-02-11T08:18:15.228Z,1.80
2019-02-11T08:20:44.882Z,1.87
2019-02-11T08:23:14.497Z,1.75
2019-02-11T08:25:44.075Z,1.57
2019-02-11T08:28:19.372Z,1.80
2019-02-11T08:30:45.049Z,2.00
2019-02-11T08:33:14.619Z,1.80
2019-02-11T08:35:44.205Z,1.70
2019-02-11T08:38:13.800Z,2.20
2019-02-11T08:40:43.435Z,2.20
2019-02-11T08:43:13.022Z,1.70
2019-02-11T08:45:47.146Z,1.80
2019-02-11T08:48:14.279Z,2.13
2019-02-11T08:50:43.870Z,2.03
2019-02-11T08:53:13.565Z,1.90
2019-02-11T08:55:43.193Z,2.00
2019-02-11T08:58:12.765Z,1.83
2019-02-11T09:00:42.339Z,2.13
2019-02-11T09:03:12.459Z,2.10
2019-02-11T09:06:01.323Z,1.97
2019-02-11T09:08:30.913Z,2.00
2019-02-11T09:11:07.604Z,2.10
2019-02-11T09:13:37.212Z,2.20
2019-02-11T09:16:07.228Z,2.20
2019-02-11T09:18:36.938Z,2.23
2019-02-11T09:21:06.511Z,2.07
2019-02-11T09:23:36.256Z,2.20
2019-02-11T09:26:06.000Z,2.17
2019-02-11T09:28:35.595Z,2.20
2019-02-11T09:31:05.207Z,2.30
2019-02-11T09:33:34.818Z,2.67
2019-02-11T09:36:04.367Z,2.30
2019-02-11T09:38:33.999Z,2.57
2019-02-11T09:41:03.602Z,2.23
2019-02-11T09:43:33.270Z,2.20
2019-02-11T09:46:04.166Z,2.33
2019-02-11T09:48:33.760Z,2.30
2019-02-11T09:51:05.049Z,2.30
2019-02-11T09:53:34.693Z,2.07
2019-02-11T09:56:04.302Z,2.37
2019-02-11T09:58:33.868Z,2.10
2019-02-11T10:01:03.502Z,2.57
2019-02-11T10:03:34.020Z,2.47
2019-02-11T10:06:03.633Z,2.40
2019-02-11T10:08:33.225Z,1.87
2019-02-11T10:11:03.002Z,2.10
2019-02-11T10:13:34.056Z,1.90
2019-02-11T10:16:12.121Z,1.80
2019-02-11T10:18:35.543Z,1.93
2019-02-11T10:21:06.440Z,2.17
2019-02-11T10:23:36.025Z,2.00
2019-02-11T10:26:05.654Z,1.70
2019-02-11T10:28:35.236Z,2.20
2019-02-11T10:31:04.884Z,2.00
2019-02-11T10:33:34.854Z,2.50
2019-02-11T10:36:05.698Z,2.23
2019-02-11T10:38:36.739Z,1.83
2019-02-11T10:41:06.469Z,1.97
2019-02-11T10:43:36.127Z,1.97
2019-02-11T10:46:11.769Z,1.80
2019-02-11T10:48:41.421Z,2.03
2019-02-11T10:51:11.500Z,2.13
2019-02-11T10:53:41.370Z,2.37
2019-02-11T10:56:11.024Z,2.07
2019-02-11T10:58:40.755Z,1.87
2019-02-11T11:01:15.085Z,2.67
2019-02-11T11:03:44.675Z,1.93
2019-02-11T11:06:14.309Z,2.30
2019-02-11T11:08:44.004Z,2.43
2019-02-11T11:11:13.565Z,2.60
2019-02-11T11:13:43.115Z,2.00
2019-02-11T11:16:12.896Z,2.50
2019-02-11T11:18:42.472Z,2.97
2019-02-11T11:21:16.698Z,2.53
2019-02-11T11:23:46.294Z,2.10
2019-02-11T11:26:15.952Z,2.00
2019-02-11T11:28:51.273Z,2.80
2019-02-11T11:31:23.712Z,2.70
2019-02-11T11:33:53.281Z,2.00
2019-02-11T11:36:23.085Z,2.27
2019-02-11T11:38:52.762Z,2.53
2019-02-11T11:41:22.324Z,2.40
2019-02-11T11:43:51.989Z,2.33
2019-02-11T11:46:21.599Z,1.90
2019-02-11T11:48:51.179Z,2.50
2019-02-11T11:51:20.804Z,2.30
2019-02-11T11:53:50.422Z,2.53
2019-02-11T11:56:20.173Z,2.40
2019-02-11T11:58:49.750Z,2.30
2019-02-11T12:01:20.266Z,2.30
2019-02-11T12:03:49.949Z,2.30
2019-02-11T12:06:19.711Z,2.40
2019-02-11T12:08:49.341Z,2.50
2019-02-11T12:11:28.189Z,2.43
2019-02-11T12:13:57.793Z,2.80
2019-02-11T12:16:27.377Z,2.20
2019-02-11T12:18:57.215Z,2.47
2019-02-11T12:21:27.179Z,2.40
2019-02-11T12:24:08.920Z,2.50
2019-02-11T12:26:38.698Z,2.33
2019-02-11T12:29:08.278Z,2.10
2019-02-11T12:31:37.873Z,2.40
2019-02-11T12:34:08.033Z,2.00
2019-02-11T12:36:37.650Z,2.33
2019-02-11T12:39:07.769Z,2.20
2019-02-11T12:41:37.405Z,2.40
2019-02-11T12:44:06.974Z,1.73
2019-02-11T12:46:36.579Z,2.13
2019-02-11T12:49:06.187Z,2.50
2019-02-11T12:51:35.764Z,2.13
2019-02-11T12:54:05.444Z,2.37
2019-02-11T12:56:35.016Z,2.40
2019-02-11T12:59:04.653Z,2.30
2019-02-11T13:01:34.229Z,2.07
2019-02-11T13:04:03.845Z,2.40
2019-02-11T13:06:33.406Z,2.23
2019-02-11T13:09:03.369Z,2.00
2019-02-11T13:11:33.100Z,2.20
2019-02-11T13:14:02.771Z,2.33
2019-02-11T13:16:32.589Z,2.40
2019-02-11T13:19:02.206Z,2.57
2019-02-11T13:21:32.782Z,2.13
2019-02-11T13:24:02.388Z,2.63
2019-02-11T13:26:35.053Z,2.10
2019-02-11T13:29:04.652Z,2.97
2019-02-11T13:31:34.487Z,2.70
2019-02-11T13:34:04.290Z,3.17
2019-02-11T13:36:33.971Z,2.77
2019-02-11T13:39:05.003Z,2.63
2019-02-11T13:41:34.826Z,3.60
2019-02-11T13:44:04.468Z,2.63
2019-02-11T13:46:34.056Z,3.07
2019-02-11T13:49:22.939Z,3.13
2019-02-11T13:51:52.835Z,3.03
2019-02-11T13:54:22.399Z,3.20
2019-02-11T13:56:52.171Z,3.60
2019-02-11T13:59:21.739Z,3.63
2019-02-11T14:01:51.368Z,3.30
2019-02-11T14:04:21.043Z,3.00
2019-02-11T14:06:50.867Z,3.40
2019-02-11T14:09:20.431Z,3.07
2019-02-11T14:11:50.383Z,3.20
2019-02-11T14:14:24.498Z,3.30
2019-02-11T14:16:54.103Z,3.70
2019-02-11T14:19:23.981Z,2.90
2019-02-11T14:21:53.626Z,3.10
2019-02-11T14:24:23.223Z,3.70
2019-02-11T14:26:52.834Z,3.47
2019-02-11T14:29:22.418Z,3.70
2019-02-11T14:31:51.996Z,3.10
2019-02-11T14:34:21.647Z,3.30
2019-02-11T14:36:51.194Z,3.10
2019-02-11T14:39:20.763Z,3.40
2019-02-11T14:41:50.337Z,3.20
2019-02-11T14:44:19.891Z,2.60
2019-02-11T14:46:51.030Z,2.43
2019-02-11T14:49:20.625Z,2.50
2019-02-11T14:51:50.194Z,2.50
2019-02-11T14:54:19.743Z,2.30
2019-02-11T14:56:49.357Z,2.47
2019-02-11T14:59:18.910Z,2.33
2019-02-11T15:01:48.459Z,2.20
2019-02-11T15:04:21.033Z,2.37
2019-02-11T15:06:50.614Z,2.60
2019-02-11T15:09:25.888Z,2.20
2019-02-11T15:11:55.550Z,2.90
2019-02-11T15:14:25.162Z,2.43
2019-02-11T15:16:54.738Z,2.60
2019-02-11T15:19:24.553Z,2.77
2019-02-11T15:21:57.201Z,2.60
2019-02-11T15:24:26.774Z,2.57
2019-02-11T15:26:56.368Z,2.63
2019-02-11T15:29:25.949Z,2.67
2019-02-11T15:31:55.538Z,2.43
2019-02-11T15:34:25.141Z,2.40
2019-02-11T15:36:54.701Z,2.33
2019-02-11T15:39:24.256Z,2.53
2019-02-11T15:41:53.835Z,2.10
2019-02-11T15:44:23.418Z,2.30
2019-02-11T15:46:52.995Z,2.27
2019-02-11T15:49:22.570Z,2.40
2019-02-11T15:51:52.123Z,2.20
2019-02-11T15:54:21.714Z,2.33
2019-02-11T15:56:51.596Z,2.33
2019-02-11T15:59:21.194Z,2.17
2019-02-11T16:01:56.401Z,2.13
2019-02-11T16:04:26.097Z,2.27
2019-02-11T16:06:55.656Z,2.20
2019-02-11T16:09:25.238Z,2.40
2019-02-11T16:11:55.254Z,2.10
2019-02-11T16:14:30.556Z,2.60
2019-02-11T16:17:00.115Z,2.53
2019-02-11T16:19:29.946Z,1.90
2019-02-11T16:21:59.693Z,2.40
2019-02-11T16:24:29.257Z,2.40
2019-02-11T16:26:58.827Z,2.17
2019-02-11T16:29:28.410Z,2.00
2019-02-11T16:32:00.726Z,2.00
2019-02-11T16:34:30.999Z,2.30
2019-02-11T16:37:02.213Z,2.13
2019-02-11T16:39:31.780Z,2.10
2019-02-11T16:42:01.354Z,2.40
2019-02-11T16:44:30.986Z,2.23
2019-02-11T16:47:00.571Z,2.20
2019-02-11T16:49:30.182Z,2.07
2019-02-11T16:51:59.760Z,2.20
2019-02-11T16:54:29.350Z,2.30
2019-02-11T16:56:58.976Z,2.10
2019-02-11T16:59:28.566Z,1.80
2019-02-11T17:01:58.116Z,2.23
2019-02-11T17:04:27.699Z,2.17
2019-02-11T17:06:57.261Z,2.50
2019-02-11T17:09:26.816Z,2.10
2019-02-11T17:11:56.828Z,2.10
2019-02-11T17:14:26.384Z,2.80
2019-02-11T17:16:55.968Z,2.00
2019-02-11T17:19:25.577Z,2.50
2019-02-11T17:21:55.157Z,2.27
2019-02-11T17:24:24.740Z,2.60
2019-02-11T17:26:54.319Z,2.60
2019-02-11T17:29:24.472Z,2.40
2019-02-11T17:31:54.061Z,2.60
2019-02-11T17:34:23.698Z,2.00
2019-02-11T17:36:53.296Z,2.37
2019-02-11T17:39:24.360Z,2.13
2019-02-11T17:41:53.985Z,2.20
2019-02-11T17:44:29.534Z,2.77
2019-02-11T17:47:18.430Z,2.07
2019-02-11T17:49:48.113Z,2.10
2019-02-11T17:52:17.944Z,2.20
2019-02-11T17:54:50.549Z,2.10
2019-02-11T17:57:20.100Z,2.40
2019-02-11T17:59:55.415Z,2.40
2019-02-11T18:02:25.057Z,2.37
2019-02-11T18:04:54.618Z,2.83
2019-02-11T18:07:24.236Z,2.30
2019-02-11T18:09:53.794Z,2.40
2019-02-11T18:12:23.348Z,1.90
2019-02-11T18:14:52.944Z,2.20
2019-02-11T18:17:22.574Z,2.07
2019-02-11T18:19:53.088Z,2.37
2019-02-11T18:22:22.830Z,2.17
2019-02-11T18:24:52.413Z,2.60
2019-02-11T18:27:21.978Z,2.13
2019-02-11T18:29:51.563Z,2.27
2019-02-11T18:32:21.156Z,2.50
2019-02-11T18:34:50.700Z,2.53
2019-02-11T18:37:20.441Z,2.10
2019-02-11T18:39:50.008Z,2.20
2019-02-11T18:42:19.585Z,2.33
2019-02-11T18:44:49.198Z,2.63
2019-02-11T18:47:18.777Z,2.50
2019-02-11T18:49:48.367Z,2.23
2019-02-11T18:52:17.972Z,2.40
2019-02-11T18:54:47.560Z,2.70
2019-02-11T18:57:17.107Z,2.90
2019-02-11T18:59:46.973Z,2.70
2019-02-11T19:02:16.956Z,2.67
2019-02-11T19:04:46.516Z,2.60
2019-02-11T19:07:16.106Z,2.80
2019-02-11T19:09:45.742Z,2.70
2019-02-11T19:12:15.869Z,3.00
2019-02-11T19:14:45.444Z,3.43
2019-02-11T19:17:15.077Z,2.63
2019-02-11T19:19:44.658Z,2.97
2019-02-11T19:22:14.431Z,2.83
2019-02-11T19:24:44.091Z,2.60
2019-02-11T19:27:13.677Z,2.60
2019-02-11T19:29:43.294Z,2.87
2019-02-11T19:32:12.840Z,3.13
2019-02-11T19:34:42.404Z,3.17
2019-02-11T19:37:11.977Z,2.53
2019-02-11T19:40:00.811Z,2.60
2019-02-11T19:42:30.408Z,3.20
2019-02-11T19:44:59.989Z,3.40
2019-02-11T19:47:29.565Z,3.50
2019-02-11T19:49:59.171Z,2.80
2019-02-11T19:52:28.731Z,3.37
2019-02-11T19:54:59.773Z,3.10
2019-02-11T19:57:29.483Z,3.80
2019-02-11T19:59:59.040Z,4.10
2019-02-11T20:02:28.628Z,3.80
2019-02-11T20:04:58.238Z,3.80
2019-02-11T20:07:27.800Z,4.00
2019-02-11T20:09:57.380Z,4.10
2019-02-11T20:12:26.969Z,4.20
2019-02-11T20:14:58.041Z,4.57
2019-02-11T20:17:27.588Z,4.30
2019-02-11T20:20:00.328Z,4.50
2019-02-11T20:22:28.824Z,3.97
2019-02-11T20:24:58.480Z,4.20
2019-02-11T20:27:29.050Z,3.87
2019-02-11T20:29:58.625Z,3.90
2019-02-11T20:32:28.209Z,3.50
2019-02-11T20:34:57.931Z,3.40
2019-02-11T20:37:27.491Z,3.43
2019-02-11T20:40:03.129Z,3.27
2019-02-11T20:42:28.389Z,3.10
2019-02-11T20:44:58.999Z,3.27
2019-02-11T20:47:28.630Z,3.10
2019-02-11T20:49:58.213Z,3.60
2019-02-11T20:52:27.801Z,3.20
2019-02-11T20:54:57.352Z,3.07
2019-02-11T20:57:26.963Z,3.50
2019-02-11T20:59:56.540Z,2.80
2019-02-11T21:02:26.095Z,3.17
2019-02-11T21:04:55.882Z,3.00
2019-02-11T21:07:25.567Z,2.83
2019-02-11T21:09:55.151Z,3.00
2019-02-11T21:12:24.823Z,3.60
2019-02-11T21:14:54.379Z,3.10
2019-02-11T21:17:23.965Z,3.07
2019-02-11T21:19:53.544Z,3.40
2019-02-11T21:22:23.423Z,4.10
2019-02-11T21:24:52.984Z,4.10
2019-02-11T21:27:22.613Z,3.50
2019-02-11T21:29:52.405Z,3.40
2019-02-11T21:32:22.145Z,3.77
2019-02-11T21:34:51.743Z,3.90
2019-02-11T21:37:21.366Z,4.07
2019-02-11T21:39:50.958Z,3.93
2019-02-11T21:42:20.559Z,4.00
2019-02-11T21:44:50.144Z,4.50
2019-02-11T21:47:19.691Z,3.40
2019-02-11T21:49:49.278Z,3.10
2019-02-11T21:52:18.868Z,3.13
2019-02-11T21:54:48.443Z,3.20
2019-02-11T21:57:18.049Z,2.83
2019-02-11T21:59:47.631Z,3.50
2019-02-11T22:02:17.220Z,2.77
2019-02-11T22:04:46.827Z,3.13
2019-02-11T22:07:16.375Z,3.00
2019-02-11T22:09:46.008Z,3.00
2019-02-11T22:12:15.590Z,3.27
2019-02-11T22:14:45.161Z,2.90
2019-02-11T22:17:14.723Z,3.23
2019-02-11T22:19:44.573Z,3.37
2019-02-11T22:22:14.128Z,3.90
2019-02-11T22:24:43.692Z,2.77
2019-02-11T22:27:13.410Z,3.57
2019-02-11T22:29:42.988Z,3.53
2019-02-11T22:32:12.732Z,3.63
2019-02-11T22:34:42.319Z,3.43
2019-02-11T22:37:11.948Z,3.63
2019-02-11T22:39:41.507Z,3.63
2019-02-11T22:42:11.081Z,3.70
2019-02-11T22:44:40.772Z,3.63
2019-02-11T22:47:10.360Z,3.50
2019-02-11T22:49:40.284Z,3.63
2019-02-11T22:52:09.861Z,3.77
2019-02-11T22:54:39.495Z,4.00
2019-02-11T22:57:09.076Z,4.07
2019-02-11T22:59:38.640Z,4.10
2019-02-11T23:02:08.355Z,4.30
2019-02-11T23:04:37.940Z,4.20
2019-02-11T23:07:07.669Z,3.90
2019-02-11T23:09:37.231Z,4.10
2019-02-11T23:12:06.930Z,3.87
2019-02-11T23:14:36.457Z,3.23
2019-02-11T23:17:06.037Z,3.63
2019-02-11T23:19:35.604Z,3.60
2019-02-11T23:22:24.544Z,3.60
2019-02-11T23:24:54.148Z,3.83
2019-02-11T23:27:23.708Z,3.83
2019-02-11T23:29:53.293Z,3.90
2019-02-11T23:32:23.406Z,3.90
2019-02-11T23:34:52.967Z,4.20
2019-02-11T23:37:22.609Z,3.90
2019-02-11T23:39:52.295Z,4.00
2019-02-11T23:42:21.918Z,4.00
2019-02-11T23:44:51.472Z,4.10
2019-02-11T23:47:21.359Z,4.90
2019-02-11T23:49:50.904Z,4.37
2019-02-11T23:52:20.466Z,4.40
2019-02-11T23:54:50.079Z,4.13
2019-02-11T23:57:19.624Z,4.27
2019-02-11T23:59:49.273Z,4.43
